sensor_id;sensor_type;location;lat;lon;timestamp;pressure;altitude;pressure_sealevel;temperature;humidity
73103;BME280;61294;65.988;29.172;2023-11-18T00:01:25;98319.56;;;-7.35;100.00
73103;BME280;61294;65.988;29.172;2023-11-18T00:03:51;98345.97;;;-7.21;100.00
73103;BME280;61294;65.988;29.172;2023-11-18T00:06:18;98338.19;;;-7.23;100.00
73103;BME280;61294;65.988;29.172;2023-11-18T00:08:44;98343.59;;;-7.18;100.00
73103;BME280;61294;65.988;29.172;2023-11-18T00:11:10;98312.84;;;-7.33;100.00
73103;BME280;61294;65.988;29.172;2023-11-18T00:13:36;98342.72;;;-7.19;100.00
73103;BME280;61294;65.988;29.172;2023-11-18T00:16:05;98348.91;;;-7.15;100.00
73103;BME280;61294;65.988;29.172;2023-11-18T00:18:31;98352.25;;;-7.16;100.00
73103;BME280;61294;65.988;29.172;2023-11-18T00:20:58;98312.59;;;-7.38;100.00
73103;BME280;61294;65.988;29.172;2023-11-18T00:23:24;98310.47;;;-7.30;100.00
73103;BME280;61294;65.988;29.172;2023-11-18T00:25:52;98346.53;;;-7.12;100.00
73103;BME280;61294;65.988;29.172;2023-11-18T00:28:18;98344.75;;;-7.13;100.00
73103;BME280;61294;65.988;29.172;2023-11-18T00:30:45;98320.97;;;-7.25;100.00
73103;BME280;61294;65.988;29.172;2023-11-18T00:33:11;98353.22;;;-7.14;100.00
73103;BME280;61294;65.988;29.172;2023-11-18T00:35:36;98359.25;;;-7.14;100.00
73103;BME280;61294;65.988;29.172;2023-11-18T00:38:02;98363.53;;;-7.13;100.00
73103;BME280;61294;65.988;29.172;2023-11-18T00:40:28;98335.19;;;-7.31;100.00
73103;BME280;61294;65.988;29.172;2023-11-18T00:42:56;98371.13;;;-7.14;100.00
73103;BME280;61294;65.988;29.172;2023-11-18T00:45:21;98350.03;;;-7.25;100.00
73103;BME280;61294;65.988;29.172;2023-11-18T00:47:47;98361.81;;;-7.14;100.00
73103;BME280;61294;65.988;29.172;2023-11-18T00:50:14;98355.50;;;-7.19;100.00
73103;BME280;61294;65.988;29.172;2023-11-18T00:52:40;98363.84;;;-7.08;100.00
73103;BME280;61294;65.988;29.172;2023-11-18T00:55:08;98306.28;;;-7.43;100.00
73103;BME280;61294;65.988;29.172;2023-11-18T00:57:35;98360.28;;;-7.10;100.00
73103;BME280;61294;65.988;29.172;2023-11-18T01:00:00;98349.09;;;-7.12;100.00
73103;BME280;61294;65.988;29.172;2023-11-18T01:02:26;98356.00;;;-7.11;100.00
73103;BME280;61294;65.988;29.172;2023-11-18T01:04:53;98359.94;;;-7.16;100.00
73103;BME280;61294;65.988;29.172;2023-11-18T01:07:18;98288.63;;;-7.53;100.00
73103;BME280;61294;65.988;29.172;2023-11-18T01:09:44;98346.16;;;-7.18;100.00
73103;BME280;61294;65.988;29.172;2023-11-18T01:12:11;98334.59;;;-7.26;100.00
73103;BME280;61294;65.988;29.172;2023-11-18T01:14:37;98322.00;;;-7.37;100.00
73103;BME280;61294;65.988;29.172;2023-11-18T01:17:05;98326.59;;;-7.31;100.00
73103;BME280;61294;65.988;29.172;2023-11-18T01:19:31;98298.88;;;-7.53;100.00
73103;BME280;61294;65.988;29.172;2023-11-18T01:21:57;98349.34;;;-7.22;100.00
73103;BME280;61294;65.988;29.172;2023-11-18T01:24:23;98298.88;;;-7.53;100.00
73103;BME280;61294;65.988;29.172;2023-11-18T01:26:48;98355.06;;;-7.26;100.00
73103;BME280;61294;65.988;29.172;2023-11-18T01:29:14;98337.47;;;-7.35;100.00
73103;BME280;61294;65.988;29.172;2023-11-18T01:31:40;98314.56;;;-7.47;100.00
73103;BME280;61294;65.988;29.172;2023-11-18T01:34:07;98348.78;;;-7.32;100.00
73103;BME280;61294;65.988;29.172;2023-11-18T01:36:37;98317.22;;;-7.46;100.00
73103;BME280;61294;65.988;29.172;2023-11-18T01:39:03;98347.00;;;-7.33;100.00
73103;BME280;61294;65.988;29.172;2023-11-18T01:41:35;98335.72;;;-7.36;100.00
73103;BME280;61294;65.988;29.172;2023-11-18T01:44:01;98346.03;;;-7.35;100.00
73103;BME280;61294;65.988;29.172;2023-11-18T01:46:29;98311.47;;;-7.56;100.00
73103;BME280;61294;65.988;29.172;2023-11-18T01:48:55;98331.44;;;-7.51;100.00
73103;BME280;61294;65.988;29.172;2023-11-18T01:51:24;98342.91;;;-7.44;100.00
73103;BME280;61294;65.988;29.172;2023-11-18T01:53:51;98346.47;;;-7.42;100.00
73103;BME280;61294;65.988;29.172;2023-11-18T01:56:17;98349.00;;;-7.42;100.00
73103;BME280;61294;65.988;29.172;2023-11-18T01:58:46;98328.69;;;-7.54;100.00
73103;BME280;61294;65.988;29.172;2023-11-18T02:01:12;98323.44;;;-7.55;100.00
73103;BME280;61294;65.988;29.172;2023-11-18T02:03:41;98338.69;;;-7.43;100.00
73103;BME280;61294;65.988;29.172;2023-11-18T02:06:07;98323.28;;;-7.58;100.00
73103;BME280;61294;65.988;29.172;2023-11-18T02:08:37;98338.38;;;-7.48;100.00
73103;BME280;61294;65.988;29.172;2023-11-18T02:11:14;98343.50;;;-7.48;100.00
73103;BME280;61294;65.988;29.172;2023-11-18T02:13:44;98333.19;;;-7.50;100.00
73103;BME280;61294;65.988;29.172;2023-11-18T02:16:12;98346.97;;;-7.48;100.00
73103;BME280;61294;65.988;29.172;2023-11-18T02:18:38;98326.31;;;-7.51;100.00
73103;BME280;61294;65.988;29.172;2023-11-18T02:21:07;98333.91;;;-7.52;100.00
73103;BME280;61294;65.988;29.172;2023-11-18T02:23:36;98301.34;;;-7.68;100.00
73103;BME280;61294;65.988;29.172;2023-11-18T02:26:03;98333.19;;;-7.50;100.00
73103;BME280;61294;65.988;29.172;2023-11-18T02:28:29;98340.84;;;-7.50;100.00
73103;BME280;61294;65.988;29.172;2023-11-18T02:31:07;98335.81;;;-7.48;100.00
73103;BME280;61294;65.988;29.172;2023-11-18T02:34:02;98338.72;;;-7.57;100.00
73103;BME280;61294;65.988;29.172;2023-11-18T02:36:32;98338.34;;;-7.63;100.00
73103;BME280;61294;65.988;29.172;2023-11-18T02:39:55;98339.44;;;-7.59;100.00
73103;BME280;61294;65.988;29.172;2023-11-18T02:42:09;98338.03;;;-7.54;100.00
73103;BME280;61294;65.988;29.172;2023-11-18T02:44:48;98340.84;;;-7.50;100.00
73103;BME280;61294;65.988;29.172;2023-11-18T02:47:17;98340.16;;;-7.47;100.00
73103;BME280;61294;65.988;29.172;2023-11-18T02:49:42;98341.84;;;-7.48;100.00
73103;BME280;61294;65.988;29.172;2023-11-18T02:52:09;98338.50;;;-7.47;100.00
73103;BME280;61294;65.988;29.172;2023-11-18T02:54:35;98336.22;;;-7.42;100.00
73103;BME280;61294;65.988;29.172;2023-11-18T02:57:01;98331.00;;;-7.43;100.00
73103;BME280;61294;65.988;29.172;2023-11-18T02:59:40;98319.00;;;-7.44;100.00
73103;BME280;61294;65.988;29.172;2023-11-18T03:02:05;98324.38;;;-7.40;100.00
73103;BME280;61294;65.988;29.172;2023-11-18T03:04:31;98322.44;;;-7.44;100.00
73103;BME280;61294;65.988;29.172;2023-11-18T03:06:57;98321.47;;;-7.46;100.00
73103;BME280;61294;65.988;29.172;2023-11-18T03:09:25;98319.59;;;-7.49;100.00
73103;BME280;61294;65.988;29.172;2023-11-18T03:11:53;98314.41;;;-7.50;100.00
73103;BME280;61294;65.988;29.172;2023-11-18T03:14:20;98292.13;;;-7.66;100.00
73103;BME280;61294;65.988;29.172;2023-11-18T03:16:49;98302.47;;;-7.50;100.00
73103;BME280;61294;65.988;29.172;2023-11-18T03:19:18;98304.25;;;-7.49;100.00
73103;BME280;61294;65.988;29.172;2023-11-18T03:21:50;98281.66;;;-7.56;100.00
73103;BME280;61294;65.988;29.172;2023-11-18T03:24:18;98295.88;;;-7.46;100.00
73103;BME280;61294;65.988;29.172;2023-11-18T03:26:44;98307.00;;;-7.46;100.00
73103;BME280;61294;65.988;29.172;2023-11-18T03:29:10;98302.78;;;-7.45;100.00
73103;BME280;61294;65.988;29.172;2023-11-18T03:31:46;98308.75;;;-7.44;100.00
73103;BME280;61294;65.988;29.172;2023-11-18T03:34:16;98312.91;;;-7.47;100.00
73103;BME280;61294;65.988;29.172;2023-11-18T03:36:46;98315.47;;;-7.47;100.00
73103;BME280;61294;65.988;29.172;2023-11-18T03:39:13;98304.25;;;-7.49;100.00
73103;BME280;61294;65.988;29.172;2023-11-18T03:41:41;98312.19;;;-7.44;100.00
73103;BME280;61294;65.988;29.172;2023-11-18T03:44:12;98308.75;;;-7.44;100.00
73103;BME280;61294;65.988;29.172;2023-11-18T03:46:39;98304.53;;;-7.44;100.00
73103;BME280;61294;65.988;29.172;2023-11-18T03:49:06;98312.50;;;-7.39;100.00
73103;BME280;61294;65.988;29.172;2023-11-18T03:51:33;98319.28;;;-7.40;100.00
73103;BME280;61294;65.988;29.172;2023-11-18T03:53:59;98320.09;;;-7.41;100.00
73103;BME280;61294;65.988;29.172;2023-11-18T03:56:25;98307.91;;;-7.45;100.00
73103;BME280;61294;65.988;29.172;2023-11-18T03:58:52;98314.16;;;-7.40;100.00
73103;BME280;61294;65.988;29.172;2023-11-18T04:01:25;98321.81;;;-7.40;100.00
73103;BME280;61294;65.988;29.172;2023-11-18T04:03:54;98316.72;;;-7.40;100.00
73103;BME280;61294;65.988;29.172;2023-11-18T04:06:21;98316.72;;;-7.40;100.00
73103;BME280;61294;65.988;29.172;2023-11-18T04:08:48;98312.19;;;-7.44;100.00
73103;BME280;61294;65.988;29.172;2023-11-18T04:14:04;98313.09;;;-7.43;100.00
73103;BME280;61294;65.988;29.172;2023-11-18T04:16:30;98329.50;;;-7.40;100.00
73103;BME280;61294;65.988;29.172;2023-11-18T04:18:56;98300.25;;;-7.58;100.00
73103;BME280;61294;65.988;29.172;2023-11-18T04:21:22;98299.13;;;-7.49;100.00
73103;BME280;61294;65.988;29.172;2023-11-18T04:23:49;98321.91;;;-7.38;100.00
73103;BME280;61294;65.988;29.172;2023-11-18T04:26:15;98314.16;;;-7.40;100.00
73103;BME280;61294;65.988;29.172;2023-11-18T04:28:41;98307.16;;;-7.42;100.00
73103;BME280;61294;65.988;29.172;2023-11-18T04:31:08;98285.28;;;-7.52;100.00
73103;BME280;61294;65.988;29.172;2023-11-18T04:33:35;98287.03;;;-7.51;100.00
73103;BME280;61294;65.988;29.172;2023-11-18T04:36:01;98305.69;;;-7.39;100.00
73103;BME280;61294;65.988;29.172;2023-11-18T04:38:28;98305.69;;;-7.39;100.00
73103;BME280;61294;65.988;29.172;2023-11-18T04:40:55;98292.63;;;-7.43;100.00
73103;BME280;61294;65.988;29.172;2023-11-18T04:43:22;98308.34;;;-7.37;100.00
73103;BME280;61294;65.988;29.172;2023-11-18T04:45:49;98311.00;;;-7.36;100.00
73103;BME280;61294;65.988;29.172;2023-11-18T04:48:16;98295.28;;;-7.42;100.00
73103;BME280;61294;65.988;29.172;2023-11-18T04:50:42;98279.34;;;-7.51;100.00
73103;BME280;61294;65.988;29.172;2023-11-18T04:53:09;98285.38;;;-7.51;100.00
73103;BME280;61294;65.988;29.172;2023-11-18T04:55:37;98312.75;;;-7.35;100.00
73103;BME280;61294;65.988;29.172;2023-11-18T04:58:04;98294.66;;;-7.38;100.00
73103;BME280;61294;65.988;29.172;2023-11-18T05:00:37;98297.41;;;-7.35;100.00
73103;BME280;61294;65.988;29.172;2023-11-18T05:03:05;98312.25;;;-7.29;100.00
73103;BME280;61294;65.988;29.172;2023-11-18T05:05:36;98284.13;;;-7.42;100.00
73103;BME280;61294;65.988;29.172;2023-11-18T05:08:04;98306.03;;;-7.33;100.00
73103;BME280;61294;65.988;29.172;2023-11-18T05:10:34;98298.28;;;-7.34;100.00
73103;BME280;61294;65.988;29.172;2023-11-18T05:13:01;98304.47;;;-7.31;100.00
73103;BME280;61294;65.988;29.172;2023-11-18T05:15:30;98292.66;;;-7.29;100.00
73103;BME280;61294;65.988;29.172;2023-11-18T05:17:57;98296.00;;;-7.30;100.00
73103;BME280;61294;65.988;29.172;2023-11-18T05:20:24;98287.34;;;-7.32;100.00
73103;BME280;61294;65.988;29.172;2023-11-18T05:22:51;98271.34;;;-7.42;100.00
73103;BME280;61294;65.988;29.172;2023-11-18T05:25:18;98292.56;;;-7.30;100.00
73103;BME280;61294;65.988;29.172;2023-11-18T05:27:45;98285.56;;;-7.33;100.00
73103;BME280;61294;65.988;29.172;2023-11-18T05:30:12;98248.66;;;-7.51;100.00
73103;BME280;61294;65.988;29.172;2023-11-18T05:32:38;98265.00;;;-7.49;100.00
73103;BME280;61294;65.988;29.172;2023-11-18T05:35:05;98288.13;;;-7.33;100.00
73103;BME280;61294;65.988;29.172;2023-11-18T05:37:32;98258.03;;;-7.52;100.00
73103;BME280;61294;65.988;29.172;2023-11-18T05:40:04;98293.25;;;-7.33;100.00
73103;BME280;61294;65.988;29.172;2023-11-18T05:42:34;98294.06;;;-7.34;100.00
73103;BME280;61294;65.988;29.172;2023-11-18T05:45:05;98281.19;;;-7.35;100.00
73103;BME280;61294;65.988;29.172;2023-11-18T05:47:33;98277.72;;;-7.36;100.00
73103;BME280;61294;65.988;29.172;2023-11-18T05:50:08;98285.41;;;-7.36;100.00
73103;BME280;61294;65.988;29.172;2023-11-18T05:52:39;98299.38;;;-7.31;100.00
73103;BME280;61294;65.988;29.172;2023-11-18T05:55:05;98301.03;;;-7.31;100.00
73103;BME280;61294;65.988;29.172;2023-11-18T05:57:33;98306.94;;;-7.32;100.00
73103;BME280;61294;65.988;29.172;2023-11-18T06:00:01;98306.03;;;-7.33;100.00
73103;BME280;61294;65.988;29.172;2023-11-18T06:02:28;98304.41;;;-7.32;100.00
73103;BME280;61294;65.988;29.172;2023-11-18T06:04:56;98288.56;;;-7.40;100.00
73103;BME280;61294;65.988;29.172;2023-11-18T06:07:22;98314.91;;;-7.28;100.00
73103;BME280;61294;65.988;29.172;2023-11-18T06:09:48;98299.28;;;-7.32;100.00
73103;BME280;61294;65.988;29.172;2023-11-18T06:12:15;98285.22;;;-7.39;100.00
73103;BME280;61294;65.988;29.172;2023-11-18T06:14:43;98313.91;;;-7.30;100.00
73103;BME280;61294;65.988;29.172;2023-11-18T06:17:10;98293.16;;;-7.34;100.00
73103;BME280;61294;65.988;29.172;2023-11-18T06:19:38;98313.72;;;-7.33;100.00
73103;BME280;61294;65.988;29.172;2023-11-18T06:22:05;98312.84;;;-7.33;100.00
73103;BME280;61294;65.988;29.172;2023-11-18T06:24:31;98294.59;;;-7.39;100.00
73103;BME280;61294;65.988;29.172;2023-11-18T06:26:57;98315.50;;;-7.32;100.00
73103;BME280;61294;65.988;29.172;2023-11-18T06:29:25;98324.13;;;-7.30;100.00
73103;BME280;61294;65.988;29.172;2023-11-18T06:31:50;98303.13;;;-7.39;100.00
73103;BME280;61294;65.988;29.172;2023-11-18T06:34:16;98329.47;;;-7.26;100.00
73103;BME280;61294;65.988;29.172;2023-11-18T06:36:42;98311.97;;;-7.34;100.00
73103;BME280;61294;65.988;29.172;2023-11-18T06:39:07;98335.47;;;-7.26;100.00
73103;BME280;61294;65.988;29.172;2023-11-18T06:41:34;98318.41;;;-7.25;100.00
73103;BME280;61294;65.988;29.172;2023-11-18T06:44:02;98321.06;;;-7.24;100.00
73103;BME280;61294;65.988;29.172;2023-11-18T06:46:42;98329.56;;;-7.25;100.00
73103;BME280;61294;65.988;29.172;2023-11-18T06:49:08;98324.34;;;-7.26;100.00
73103;BME280;61294;65.988;29.172;2023-11-18T06:51:36;98290.34;;;-7.39;100.00
73103;BME280;61294;65.988;29.172;2023-11-18T06:54:03;98320.19;;;-7.24;100.00
73103;BME280;61294;65.988;29.172;2023-11-18T06:56:35;98321.06;;;-7.24;100.00
73103;BME280;61294;65.988;29.172;2023-11-18T06:59:05;98308.00;;;-7.29;100.00
73103;BME280;61294;65.988;29.172;2023-11-18T07:01:35;98320.28;;;-7.23;100.00
73103;BME280;61294;65.988;29.172;2023-11-18T07:04:01;98329.03;;;-7.19;100.00
73103;BME280;61294;65.988;29.172;2023-11-18T07:06:27;98335.31;;;-7.14;100.00
73103;BME280;61294;65.988;29.172;2023-11-18T07:08:54;98329.22;;;-7.16;100.00
73103;BME280;61294;65.988;29.172;2023-11-18T07:11:25;98315.16;;;-7.23;100.00
73103;BME280;61294;65.988;29.172;2023-11-18T07:13:51;98288.75;;;-7.37;100.00
73103;BME280;61294;65.988;29.172;2023-11-18T07:16:23;98290.00;;;-7.30;100.00
73103;BME280;61294;65.988;29.172;2023-11-18T07:18:49;98326.66;;;-7.16;100.00
73103;BME280;61294;65.988;29.172;2023-11-18T07:21:15;98278.06;;;-7.44;100.00
73103;BME280;61294;65.988;29.172;2023-11-18T07:23:40;98300.59;;;-7.24;100.00
73103;BME280;61294;65.988;29.172;2023-11-18T07:26:07;98311.13;;;-7.19;100.00
73103;BME280;61294;65.988;29.172;2023-11-18T07:28:35;98309.59;;;-7.16;100.00
73103;BME280;61294;65.988;29.172;2023-11-18T07:31:01;98318.38;;;-7.12;100.00
73103;BME280;61294;65.988;29.172;2023-11-18T07:33:30;98322.59;;;-7.13;100.00
73103;BME280;61294;65.988;29.172;2023-11-18T07:35:59;98269.34;;;-7.33;100.00
73103;BME280;61294;65.988;29.172;2023-11-18T07:38:25;98290.56;;;-7.21;100.00
73103;BME280;61294;65.988;29.172;2023-11-18T07:40:52;98309.09;;;-7.10;100.00
73103;BME280;61294;65.988;29.172;2023-11-18T07:43:22;98317.59;;;-7.11;100.00
73103;BME280;61294;65.988;29.172;2023-11-18T07:45:49;98287.91;;;-7.22;100.00
73103;BME280;61294;65.988;29.172;2023-11-18T07:48:17;98284.53;;;-7.21;100.00
73103;BME280;61294;65.988;29.172;2023-11-18T07:50:44;98286.13;;;-7.23;100.00
73103;BME280;61294;65.988;29.172;2023-11-18T07:53:10;98313.69;;;-7.04;100.00
73103;BME280;61294;65.988;29.172;2023-11-18T07:55:37;98318.91;;;-7.03;100.00
73103;BME280;61294;65.988;29.172;2023-11-18T07:58:06;98323.22;;;-7.02;100.00
73103;BME280;61294;65.988;29.172;2023-11-18T08:00:43;98318.97;;;-7.01;100.00
73103;BME280;61294;65.988;29.172;2023-11-18T08:03:13;98324.03;;;-7.03;100.00
73103;BME280;61294;65.988;29.172;2023-11-18T08:05:44;98320.06;;;-6.98;100.00
73103;BME280;61294;65.988;29.172;2023-11-18T08:08:13;98308.94;;;-6.98;100.00
73103;BME280;61294;65.988;29.172;2023-11-18T08:10:42;98305.66;;;-6.96;100.00
73103;BME280;61294;65.988;29.172;2023-11-18T08:13:10;98313.25;;;-6.97;100.00
73103;BME280;61294;65.988;29.172;2023-11-18T08:15:40;98304.53;;;-7.01;100.00
73103;BME280;61294;65.988;29.172;2023-11-18T08:18:07;98301.88;;;-7.02;100.00
73103;BME280;61294;65.988;29.172;2023-11-18T08:20:35;98318.28;;;-6.99;100.00
73103;BME280;61294;65.988;29.172;2023-11-18T08:23:01;98320.94;;;-6.97;100.00
73103;BME280;61294;65.988;29.172;2023-11-18T08:25:27;98321.53;;;-7.01;100.00
73103;BME280;61294;65.988;29.172;2023-11-18T08:27:52;98313.25;;;-6.97;100.00
73103;BME280;61294;65.988;29.172;2023-11-18T08:30:18;98282.97;;;-7.19;100.00
73103;BME280;61294;65.988;29.172;2023-11-18T08:32:46;98330.41;;;-6.96;100.00
73103;BME280;61294;65.988;29.172;2023-11-18T08:35:13;98313.16;;;-6.99;100.00
73103;BME280;61294;65.988;29.172;2023-11-18T08:37:39;98298.69;;;-7.13;100.00
73103;BME280;61294;65.988;29.172;2023-11-18T08:40:06;98330.41;;;-6.96;100.00
73103;BME280;61294;65.988;29.172;2023-11-18T08:42:43;98329.59;;;-6.95;100.00
73103;BME280;61294;65.988;29.172;2023-11-18T08:45:20;98287.66;;;-7.12;100.00
73103;BME280;61294;65.988;29.172;2023-11-18T08:47:56;98313.44;;;-6.94;100.00
73103;BME280;61294;65.988;29.172;2023-11-18T08:50:22;98311.34;;;-6.86;100.00
73103;BME280;61294;65.988;29.172;2023-11-18T08:52:52;98312.13;;;-6.87;100.00
73103;BME280;61294;65.988;29.172;2023-11-18T08:55:24;98312.56;;;-6.95;100.00
73103;BME280;61294;65.988;29.172;2023-11-18T08:58:04;98326.22;;;-6.94;100.00
73103;BME280;61294;65.988;29.172;2023-11-18T09:00:42;98303.47;;;-6.89;100.00
73103;BME280;61294;65.988;29.172;2023-11-18T09:03:16;98297.19;;;-6.95;100.00
73103;BME280;61294;65.988;29.172;2023-11-18T09:06:03;98325.25;;;-6.81;100.00
73103;BME280;61294;65.988;29.172;2023-11-18T09:10:58;98291.13;;;-6.97;100.00
73103;BME280;61294;65.988;29.172;2023-11-18T09:13:25;98296.56;;;-6.90;100.00
73103;BME280;61294;65.988;29.172;2023-11-18T09:15:56;98321.13;;;-6.79;100.00
73103;BME280;61294;65.988;29.172;2023-11-18T09:18:22;98323.44;;;-6.69;100.00
73103;BME280;61294;65.988;29.172;2023-11-18T09:20:49;98289.06;;;-6.87;100.00
73103;BME280;61294;65.988;29.172;2023-11-18T09:23:16;98318.66;;;-6.78;100.00
73103;BME280;61294;65.988;29.172;2023-11-18T09:25:42;98284.22;;;-6.98;100.00
73103;BME280;61294;65.988;29.172;2023-11-18T09:28:12;98264.97;;;-7.06;100.00
73103;BME280;61294;65.988;29.172;2023-11-18T09:30:39;98312.31;;;-6.69;100.00
73103;BME280;61294;65.988;29.172;2023-11-18T09:33:16;98321.19;;;-6.63;100.00
73103;BME280;61294;65.988;29.172;2023-11-18T09:35:51;98318.31;;;-6.69;100.00
73103;BME280;61294;65.988;29.172;2023-11-18T09:38:17;98319.72;;;-6.74;100.00
73103;BME280;61294;65.988;29.172;2023-11-18T09:40:44;98318.75;;;-6.76;100.00
73103;BME280;61294;65.988;29.172;2023-11-18T09:43:13;98285.81;;;-6.85;100.00
73103;BME280;61294;65.988;29.172;2023-11-18T09:45:41;98313.00;;;-6.72;100.00
73103;BME280;61294;65.988;29.172;2023-11-18T09:48:12;98293.41;;;-6.86;100.00
73103;BME280;61294;65.988;29.172;2023-11-18T09:50:44;98315.47;;;-6.73;100.00
73103;BME280;61294;65.988;29.172;2023-11-18T09:53:14;98283.31;;;-6.83;100.00
73103;BME280;61294;65.988;29.172;2023-11-18T09:56:10;98316.28;;;-6.60;100.00
73103;BME280;61294;65.988;29.172;2023-11-18T09:58:54;98305.75;;;-6.64;100.00
73103;BME280;61294;65.988;29.172;2023-11-18T10:01:26;98291.72;;;-6.71;100.00
73103;BME280;61294;65.988;29.172;2023-11-18T10:03:54;98285.69;;;-6.71;100.00
73103;BME280;61294;65.988;29.172;2023-11-18T10:06:24;98292.69;;;-6.69;100.00
73103;BME280;61294;65.988;29.172;2023-11-18T10:08:53;98298.69;;;-6.68;100.00
73103;BME280;61294;65.988;29.172;2023-11-18T10:11:20;98308.13;;;-6.67;100.00
73103;BME280;61294;65.988;29.172;2023-11-18T10:13:48;98300.38;;;-6.69;100.00
73103;BME280;61294;65.988;29.172;2023-11-18T10:16:14;98269.56;;;-6.85;100.00
73103;BME280;61294;65.988;29.172;2023-11-18T10:18:40;98298.59;;;-6.70;100.00
73103;BME280;61294;65.988;29.172;2023-11-18T10:21:14;98293.75;;;-6.65;100.00
73103;BME280;61294;65.988;29.172;2023-11-18T10:23:59;98266.56;;;-6.78;100.00
73103;BME280;61294;65.988;29.172;2023-11-18T10:26:27;98286.50;;;-6.57;100.00
73103;BME280;61294;65.988;29.172;2023-11-18T10:28:54;98304.44;;;-6.57;100.00
73103;BME280;61294;65.988;29.172;2023-11-18T10:31:20;98245.88;;;-6.81;100.00
73103;BME280;61294;65.988;29.172;2023-11-18T10:33:46;98304.50;;;-6.56;100.00
73103;BME280;61294;65.988;29.172;2023-11-18T10:36:21;98309.22;;;-6.64;100.00
73103;BME280;61294;65.988;29.172;2023-11-18T10:38:49;98250.47;;;-6.90;100.00
73103;BME280;61294;65.988;29.172;2023-11-18T10:41:18;98301.88;;;-6.72;100.00
73103;BME280;61294;65.988;29.172;2023-11-18T10:43:47;98304.91;;;-6.80;100.00
73103;BME280;61294;65.988;29.172;2023-11-18T10:46:16;98302.50;;;-6.77;100.00
73103;BME280;61294;65.988;29.172;2023-11-18T10:48:50;98300.56;;;-6.81;100.00
73103;BME280;61294;65.988;29.172;2023-11-18T10:51:17;98303.91;;;-6.82;100.00
73103;BME280;61294;65.988;29.172;2023-11-18T10:53:47;98274.50;;;-6.88;100.00
73103;BME280;61294;65.988;29.172;2023-11-18T10:56:24;98293.66;;;-6.82;100.00
73103;BME280;61294;65.988;29.172;2023-11-18T10:58:56;98289.31;;;-6.83;100.00
73103;BME280;61294;65.988;29.172;2023-11-18T11:01:48;98276.09;;;-6.90;100.00
73103;BME280;61294;65.988;29.172;2023-11-18T11:04:15;98260.00;;;-7.03;100.00
73103;BME280;61294;65.988;29.172;2023-11-18T11:06:48;98238.09;;;-7.13;100.00
73103;BME280;61294;65.988;29.172;2023-11-18T11:09:25;98261.69;;;-7.03;100.00
73103;BME280;61294;65.988;29.172;2023-11-18T11:11:55;98297.28;;;-6.93;100.00
73103;BME280;61294;65.988;29.172;2023-11-18T11:14:26;98255.78;;;-7.17;100.00
73103;BME280;61294;65.988;29.172;2023-11-18T11:17:05;98266.19;;;-7.14;100.00
73103;BME280;61294;65.988;29.172;2023-11-18T11:19:46;98297.47;;;-7.05;100.00
73103;BME280;61294;65.988;29.172;2023-11-18T11:22:18;98286.22;;;-7.07;100.00
73103;BME280;61294;65.988;29.172;2023-11-18T11:25:32;98238.81;;;-7.30;100.00
73103;BME280;61294;65.988;29.172;2023-11-18T11:28:08;98286.44;;;-7.04;100.00
73103;BME280;61294;65.988;29.172;2023-11-18T11:33:17;98306.19;;;-7.01;100.00
73103;BME280;61294;65.988;29.172;2023-11-18T11:35:55;98298.78;;;-6.97;100.00
73103;BME280;61294;65.988;29.172;2023-11-18T11:38:24;98306.66;;;-6.94;100.00
73103;BME280;61294;65.988;29.172;2023-11-18T11:40:53;98292.06;;;-6.95;100.00
73103;BME280;61294;65.988;29.172;2023-11-18T11:43:20;98303.72;;;-6.85;100.00
73103;BME280;61294;65.988;29.172;2023-11-18T11:45:54;98313.38;;;-6.81;100.00
73103;BME280;61294;65.988;29.172;2023-11-18T11:48:24;98307.97;;;-6.85;100.00
73103;BME280;61294;65.988;29.172;2023-11-18T11:51:32;98288.56;;;-6.97;100.00
73103;BME280;61294;65.988;29.172;2023-11-18T11:54:01;98292.59;;;-7.00;100.00
73103;BME280;61294;65.988;29.172;2023-11-18T11:56:41;98304.53;;;-7.01;100.00
73103;BME280;61294;65.988;29.172;2023-11-18T11:59:08;98290.47;;;-7.07;100.00
73103;BME280;61294;65.988;29.172;2023-11-18T12:01:39;98320.06;;;-6.98;100.00
73103;BME280;61294;65.988;29.172;2023-11-18T12:04:12;98341.25;;;-7.00;100.00
73103;BME280;61294;65.988;29.172;2023-11-18T12:06:47;98295.34;;;-7.12;100.00
73103;BME280;61294;65.988;29.172;2023-11-18T12:09:16;98317.59;;;-6.96;100.00
73103;BME280;61294;65.988;29.172;2023-11-18T12:11:46;98323.31;;;-7.00;100.00
73103;BME280;61294;65.988;29.172;2023-11-18T12:14:15;98291.09;;;-7.12;100.00
73103;BME280;61294;65.988;29.172;2023-11-18T12:17:04;98319.72;;;-7.04;100.00
73103;BME280;61294;65.988;29.172;2023-11-18T12:19:38;98297.63;;;-7.02;100.00
73103;BME280;61294;65.988;29.172;2023-11-18T12:22:12;98297.47;;;-7.05;100.00
73103;BME280;61294;65.988;29.172;2023-11-18T12:25:29;98319.72;;;-7.04;100.00
73103;BME280;61294;65.988;29.172;2023-11-18T12:33:02;98328.34;;;-7.02;100.00
73103;BME280;61294;65.988;29.172;2023-11-18T12:38:49;98321.38;;;-7.04;100.00
73103;BME280;61294;65.988;29.172;2023-11-18T12:41:39;98334.16;;;-7.04;100.00
73103;BME280;61294;65.988;29.172;2023-11-18T12:44:15;98331.78;;;-7.01;100.00
73103;BME280;61294;65.988;29.172;2023-11-18T12:46:50;98312.72;;;-7.06;100.00
73103;BME280;61294;65.988;29.172;2023-11-18T12:49:19;98330.91;;;-7.02;100.00
73103;BME280;61294;65.988;29.172;2023-11-18T12:51:50;98336.03;;;-7.02;100.00
73103;BME280;61294;65.988;29.172;2023-11-18T12:54:18;98336.63;;;-7.06;100.00
73103;BME280;61294;65.988;29.172;2023-11-18T12:56:44;98332.22;;;-7.08;100.00
73103;BME280;61294;65.988;29.172;2023-11-18T12:59:15;98331.53;;;-7.06;100.00
73103;BME280;61294;65.988;29.172;2023-11-18T13:01:47;98316.16;;;-7.06;100.00
73103;BME280;61294;65.988;29.172;2023-11-18T13:04:18;98323.31;;;-7.00;100.00
73103;BME280;61294;65.988;29.172;2023-11-18T13:06:49;98323.56;;;-7.11;100.00
73103;BME280;61294;65.988;29.172;2023-11-18T13:09:17;98322.28;;;-7.04;100.00